sensor_id;sensor_type;location;lat;lon;timestamp;temperature;humidity
13850;DHT22;6995;52.618;13.488;2022-09-06T16:10:04;23.60;1.00
13850;DHT22;6995;52.618;13.488;2022-09-06T16:12:33;23.50;1.00
13850;DHT22;6995;52.618;13.488;2022-09-06T16:15:14;23.40;1.00
13850;DHT22;6995;52.618;13.488;2022-09-06T16:17:40;23.30;1.00
13850;DHT22;6995;52.618;13.488;2022-09-06T16:20:17;23.10;1.00
13850;DHT22;6995;52.618;13.488;2022-09-06T16:25:39;22.80;1.00
13850;DHT22;6995;52.618;13.488;2022-09-06T16:28:11;22.90;1.00
13850;DHT22;6995;52.618;13.488;2022-09-06T16:30:43;22.80;1.00
13850;DHT22;6995;52.618;13.488;2022-09-06T16:33:10;22.80;1.00
13850;DHT22;6995;52.618;13.488;2022-09-06T16:35:40;22.80;1.00
13850;DHT22;6995;52.618;13.488;2022-09-06T16:38:08;22.70;1.00
13850;DHT22;6995;52.618;13.488;2022-09-06T16:40:35;22.60;1.00
13850;DHT22;6995;52.618;13.488;2022-09-06T16:43:02;22.60;1.00
13850;DHT22;6995;52.618;13.488;2022-09-06T16:45:29;22.60;1.00
13850;DHT22;6995;52.618;13.488;2022-09-06T16:47:56;22.50;1.00
13850;DHT22;6995;52.618;13.488;2022-09-06T16:50:25;22.30;1.00
13850;DHT22;6995;52.618;13.488;2022-09-06T16:52:50;22.30;1.00
13850;DHT22;6995;52.618;13.488;2022-09-06T16:55:18;22.10;1.00
13850;DHT22;6995;52.618;13.488;2022-09-06T16:57:50;22.10;1.00
13850;DHT22;6995;52.618;13.488;2022-09-06T17:00:19;22.00;1.00
13850;DHT22;6995;52.618;13.488;2022-09-06T17:02:44;22.00;1.00
13850;DHT22;6995;52.618;13.488;2022-09-06T17:05:16;21.90;1.00
13850;DHT22;6995;52.618;13.488;2022-09-06T17:08:06;21.80;1.00
13850;DHT22;6995;52.618;13.488;2022-09-06T17:11:09;21.70;1.00
13850;DHT22;6995;52.618;13.488;2022-09-06T17:16:37;21.70;1.00
13850;DHT22;6995;52.618;13.488;2022-09-06T17:19:50;21.60;1.00
13850;DHT22;6995;52.618;13.488;2022-09-06T17:26:30;21.40;1.00
13850;DHT22;6995;52.618;13.488;2022-09-06T17:28:59;21.30;1.00
13850;DHT22;6995;52.618;13.488;2022-09-06T17:31:28;21.10;1.00
13850;DHT22;6995;52.618;13.488;2022-09-06T17:34:07;21.10;1.00
13850;DHT22;6995;52.618;13.488;2022-09-06T17:36:56;21.00;1.00
13850;DHT22;6995;52.618;13.488;2022-09-06T17:39:36;21.10;1.00
13850;DHT22;6995;52.618;13.488;2022-09-06T17:49:14;20.90;1.00
13850;DHT22;6995;52.618;13.488;2022-09-06T17:57:56;20.80;1.00
13850;DHT22;6995;52.618;13.488;2022-09-06T18:00:30;20.70;1.00
13850;DHT22;6995;52.618;13.488;2022-09-06T18:06:49;20.60;1.00
13850;DHT22;6995;52.618;13.488;2022-09-06T18:09:18;20.50;1.00
13850;DHT22;6995;52.618;13.488;2022-09-06T18:11:44;20.50;1.00
13850;DHT22;6995;52.618;13.488;2022-09-06T18:14:13;20.50;1.00
13850;DHT22;6995;52.618;13.488;2022-09-06T18:16:50;20.40;1.00
13850;DHT22;6995;52.618;13.488;2022-09-06T18:19:39;20.40;1.00
13850;DHT22;6995;52.618;13.488;2022-09-06T18:22:04;20.30;1.00
13850;DHT22;6995;52.618;13.488;2022-09-06T18:24:36;20.40;1.00
13850;DHT22;6995;52.618;13.488;2022-09-06T18:27:08;20.40;1.00
13850;DHT22;6995;52.618;13.488;2022-09-06T18:29:34;20.40;1.00
13850;DHT22;6995;52.618;13.488;2022-09-06T18:32:07;20.40;1.00
13850;DHT22;6995;52.618;13.488;2022-09-06T18:34:33;20.40;1.00
13850;DHT22;6995;52.618;13.488;2022-09-06T18:37:08;20.40;1.00
13850;DHT22;6995;52.618;13.488;2022-09-06T18:39:34;20.40;1.00
13850;DHT22;6995;52.618;13.488;2022-09-06T18:42:03;20.40;1.00
13850;DHT22;6995;52.618;13.488;2022-09-06T18:44:38;20.50;1.00
13850;DHT22;6995;52.618;13.488;2022-09-06T18:47:06;20.40;1.00
13850;DHT22;6995;52.618;13.488;2022-09-06T18:50:06;20.40;1.00
13850;DHT22;6995;52.618;13.488;2022-09-06T18:52:37;20.40;1.00
13850;DHT22;6995;52.618;13.488;2022-09-06T18:55:07;20.40;1.00
13850;DHT22;6995;52.618;13.488;2022-09-06T18:57:33;20.30;1.00
13850;DHT22;6995;52.618;13.488;2022-09-06T18:59:58;20.30;1.00
13850;DHT22;6995;52.618;13.488;2022-09-06T19:02:24;20.30;1.00
13850;DHT22;6995;52.618;13.488;2022-09-06T19:04:56;20.30;1.00
13850;DHT22;6995;52.618;13.488;2022-09-06T19:07:26;20.40;1.00
13850;DHT22;6995;52.618;13.488;2022-09-06T19:09:57;20.30;1.00
13850;DHT22;6995;52.618;13.488;2022-09-06T19:12:23;20.30;1.00
13850;DHT22;6995;52.618;13.488;2022-09-06T19:14:48;20.20;1.00
13850;DHT22;6995;52.618;13.488;2022-09-06T19:17:14;20.20;1.00
13850;DHT22;6995;52.618;13.488;2022-09-06T19:19:40;20.10;1.00
13850;DHT22;6995;52.618;13.488;2022-09-06T19:22:05;20.10;1.00
13850;DHT22;6995;52.618;13.488;2022-09-06T19:24:31;20.20;1.00
13850;DHT22;6995;52.618;13.488;2022-09-06T19:26:57;20.10;1.00
13850;DHT22;6995;52.618;13.488;2022-09-06T19:29:23;20.10;1.00
13850;DHT22;6995;52.618;13.488;2022-09-06T19:31:58;20.10;1.00
13850;DHT22;6995;52.618;13.488;2022-09-06T19:34:23;20.10;1.00
13850;DHT22;6995;52.618;13.488;2022-09-06T19:36:52;20.00;1.00
13850;DHT22;6995;52.618;13.488;2022-09-06T19:39:19;20.00;1.00
13850;DHT22;6995;52.618;13.488;2022-09-06T19:41:46;20.10;1.00
13850;DHT22;6995;52.618;13.488;2022-09-06T19:44:13;20.00;1.00
13850;DHT22;6995;52.618;13.488;2022-09-06T19:46:45;20.00;1.00
13850;DHT22;6995;52.618;13.488;2022-09-06T19:49:17;20.00;1.00
13850;DHT22;6995;52.618;13.488;2022-09-06T19:51:46;20.00;1.00
13850;DHT22;6995;52.618;13.488;2022-09-06T19:54:16;19.90;1.00
13850;DHT22;6995;52.618;13.488;2022-09-06T19:56:50;20.00;1.00
13850;DHT22;6995;52.618;13.488;2022-09-06T19:59:18;19.90;1.00
13850;DHT22;6995;52.618;13.488;2022-09-06T20:01:44;20.00;1.00
13850;DHT22;6995;52.618;13.488;2022-09-06T20:04:19;20.00;1.00
13850;DHT22;6995;52.618;13.488;2022-09-06T20:06:45;20.00;1.00
13850;DHT22;6995;52.618;13.488;2022-09-06T20:09:20;19.90;1.00
13850;DHT22;6995;52.618;13.488;2022-09-06T20:12:06;20.00;1.00
13850;DHT22;6995;52.618;13.488;2022-09-06T20:14:38;19.90;1.00
13850;DHT22;6995;52.618;13.488;2022-09-06T20:17:03;19.80;1.00
13850;DHT22;6995;52.618;13.488;2022-09-06T20:19:33;19.80;1.00
13850;DHT22;6995;52.618;13.488;2022-09-06T20:22:07;19.80;1.00
13850;DHT22;6995;52.618;13.488;2022-09-06T20:24:35;19.80;1.00
13850;DHT22;6995;52.618;13.488;2022-09-06T20:27:02;19.80;1.00
13850;DHT22;6995;52.618;13.488;2022-09-06T20:29:28;19.70;1.00
13850;DHT22;6995;52.618;13.488;2022-09-06T20:31:54;19.70;1.00
13850;DHT22;6995;52.618;13.488;2022-09-06T20:34:22;19.70;1.00
13850;DHT22;6995;52.618;13.488;2022-09-06T20:36:51;19.70;1.00
13850;DHT22;6995;52.618;13.488;2022-09-06T20:39:17;19.60;1.00
13850;DHT22;6995;52.618;13.488;2022-09-06T20:41:52;19.50;1.00
13850;DHT22;6995;52.618;13.488;2022-09-06T20:44:21;19.50;1.00
13850;DHT22;6995;52.618;13.488;2022-09-06T20:46:47;19.50;1.00
13850;DHT22;6995;52.618;13.488;2022-09-06T20:49:18;19.40;1.00
13850;DHT22;6995;52.618;13.488;2022-09-06T20:51:45;19.50;1.00
13850;DHT22;6995;52.618;13.488;2022-09-06T20:54:11;19.40;1.00
13850;DHT22;6995;52.618;13.488;2022-09-06T20:56:49;19.40;1.00
13850;DHT22;6995;52.618;13.488;2022-09-06T20:59:18;19.40;1.00
13850;DHT22;6995;52.618;13.488;2022-09-06T21:01:46;19.30;1.00
13850;DHT22;6995;52.618;13.488;2022-09-06T21:04:20;19.40;1.00
13850;DHT22;6995;52.618;13.488;2022-09-06T21:06:46;19.40;1.00
13850;DHT22;6995;52.618;13.488;2022-09-06T21:09:15;19.40;1.00
13850;DHT22;6995;52.618;13.488;2022-09-06T21:11:54;19.40;1.00
13850;DHT22;6995;52.618;13.488;2022-09-06T21:14:22;19.40;19.50
13850;DHT22;6995;52.618;13.488;2022-09-06T21:16:50;19.40;1.00
13850;DHT22;6995;52.618;13.488;2022-09-06T21:19:16;19.40;1.00
13850;DHT22;6995;52.618;13.488;2022-09-06T21:21:49;19.40;1.00
13850;DHT22;6995;52.618;13.488;2022-09-06T21:24:24;19.40;1.00
13850;DHT22;6995;52.618;13.488;2022-09-06T21:26:56;19.40;1.00
13850;DHT22;6995;52.618;13.488;2022-09-06T21:29:22;19.40;1.00
13850;DHT22;6995;52.618;13.488;2022-09-06T21:31:51;19.40;1.00
13850;DHT22;6995;52.618;13.488;2022-09-06T21:34:16;19.40;1.00
13850;DHT22;6995;52.618;13.488;2022-09-06T21:36:44;19.30;1.50
13850;DHT22;6995;52.618;13.488;2022-09-06T21:39:15;19.20;1.10
13850;DHT22;6995;52.618;13.488;2022-09-06T21:41:43;19.20;2.10
13850;DHT22;6995;52.618;13.488;2022-09-06T21:44:10;19.20;1.10
13850;DHT22;6995;52.618;13.488;2022-09-06T21:46:39;19.20;2.10
13850;DHT22;6995;52.618;13.488;2022-09-06T21:49:09;19.20;2.70
13850;DHT22;6995;52.618;13.488;2022-09-06T21:51:38;19.20;1.00
13850;DHT22;6995;52.618;13.488;2022-09-06T21:54:04;19.20;1.00
13850;DHT22;6995;52.618;13.488;2022-09-06T21:56:35;19.10;1.00
13850;DHT22;6995;52.618;13.488;2022-09-06T21:59:05;19.10;1.70
13850;DHT22;6995;52.618;13.488;2022-09-06T22:01:35;19.10;1.10
13850;DHT22;6995;52.618;13.488;2022-09-06T22:04:01;19.10;1.70
13850;DHT22;6995;52.618;13.488;2022-09-06T22:06:29;19.10;19.90
13850;DHT22;6995;52.618;13.488;2022-09-06T22:08:56;19.10;1.00
13850;DHT22;6995;52.618;13.488;2022-09-06T22:11:30;19.10;19.10
13850;DHT22;6995;52.618;13.488;2022-09-06T22:14:04;19.10;1.00
13850;DHT22;6995;52.618;13.488;2022-09-06T22:16:41;19.10;1.00
13850;DHT22;6995;52.618;13.488;2022-09-06T22:19:10;19.10;1.00
13850;DHT22;6995;52.618;13.488;2022-09-06T22:21:36;19.00;1.00
13850;DHT22;6995;52.618;13.488;2022-09-06T22:24:18;19.00;1.00
13850;DHT22;6995;52.618;13.488;2022-09-06T22:26:57;19.10;1.00
13850;DHT22;6995;52.618;13.488;2022-09-06T22:29:23;19.00;1.00
13850;DHT22;6995;52.618;13.488;2022-09-06T22:31:48;19.00;1.40
13850;DHT22;6995;52.618;13.488;2022-09-06T22:34:17;19.00;21.20
13850;DHT22;6995;52.618;13.488;2022-09-06T22:36:43;18.90;1.10
13850;DHT22;6995;52.618;13.488;2022-09-06T22:39:08;19.00;1.00
13850;DHT22;6995;52.618;13.488;2022-09-06T22:41:40;18.90;1.00
13850;DHT22;6995;52.618;13.488;2022-09-06T22:44:14;18.90;1.50
13850;DHT22;6995;52.618;13.488;2022-09-06T22:46:51;18.90;1.00
13850;DHT22;6995;52.618;13.488;2022-09-06T22:49:20;18.90;2.20
13850;DHT22;6995;52.618;13.488;2022-09-06T22:51:46;18.90;1.90
13850;DHT22;6995;52.618;13.488;2022-09-06T22:54:12;18.80;2.20
13850;DHT22;6995;52.618;13.488;2022-09-06T22:56:40;18.80;4.50
13850;DHT22;6995;52.618;13.488;2022-09-06T22:59:10;18.70;5.40
13850;DHT22;6995;52.618;13.488;2022-09-06T23:01:47;18.70;5.00
13850;DHT22;6995;52.618;13.488;2022-09-06T23:04:16;18.60;2.20
13850;DHT22;6995;52.618;13.488;2022-09-06T23:06:47;18.60;1.90
13850;DHT22;6995;52.618;13.488;2022-09-06T23:09:39;18.50;3.60
